• Join FlightAware (Why Join?)
  • Login
  • US Flag 
04:20AM EDT


 

Airport Tracker/Info


-or-


 

Live Flight TrackerFlight Track Log ✈ AAY863 ✈ 23-Feb-2014 ✈ KCID - KPIE

Flight Track Log - Related Links

Times and Time Zones

All times are in EST time to prevent confusion due to time zone crossing. See the AAY863 flight status page for this flight to view local times or setup timezone preferences in your user account.

Time Position Orientation Groundspeed Altitude Reporting Facility
EST Latitude Longitude Course Direction KTS MPH feet Rate Location/Type
08:00PM 41.8658 -91.7731 137° Southeast 154 177 3,700  Level Chicago Center
08:01PM 41.8058 -91.7725 180° South 231 266 6,400 2,700 Climbing Chicago Center
08:02PM 41.7217 -91.7289 159° South 274 315 9,300 2,280 Climbing Chicago Center
08:03PM 41.6386 -91.6864 159° South 317 365 11,200 1,980 Climbing Chicago Center
08:04PM 41.5417 -91.6297 156° South 375 432 13,500 2,160 Climbing Chicago Center
08:05PM 41.2581 -91.3083 137° Southeast  Level FlightAware Approximate
08:05PM 41.4508 -91.5361 142° Southeast 422 486 15,700  Level Chicago Center
08:06PM 41.3597 -91.4239 137° Southeast 446 513 17,900 2,100 Climbing Chicago Center
08:07PM 41.2500 -91.2967 139° Southeast 469 540 20,100 1,860 Climbing Chicago Center
08:08PM 41.1503 -91.1792 138° Southeast 481 554 21,800 1,560 Climbing Chicago Center
08:09PM 41.0472 -91.0569 138° Southeast 493 567 23,400 1,140 Climbing Chicago Center
08:10PM 40.9400 -90.9328 139° Southeast 506 582 24,200 1,200 Climbing Chicago Center
08:11PM 40.8061 -90.7753 138° Southeast 529 609 26,000 1,500 Climbing Chicago Center
08:12PM 40.6950 -90.6464 139° Southeast 535 616 27,400 1,500 Climbing Chicago Center
08:13PM 40.5844 -90.5169 138° Southeast 536 617 29,100 1,200 Climbing Chicago Center
08:14PM 40.4742 -90.3944 140° Southeast 528 608 29,900 900 Climbing Chicago Center
08:15PM 40.3569 -90.3011 149° Southeast 499 574 31,000 480 Climbing Chicago Center
08:16PM 40.2144 -90.2028 152° Southeast 488 562 31,000  Level Chicago Center
08:18PM 40.0939 -90.1175 152° Southeast 493 567 31,000  Level Chicago Center
08:19PM 39.9736 -90.0333 152° Southeast 494 568 31,000  Level Chicago Center
08:20PM 39.8536 -89.9506 152° Southeast 490 564 31,000  Level Chicago Center
08:21PM 39.7325 -89.8658 152° Southeast 495 570 31,000  Level Chicago Center
08:22PM 39.5892 -89.7681 152° Southeast 488 562 31,000  Level Chicago Center
08:23PM 39.4700 -89.6881 153° Southeast 484 557 31,000  Level Chicago Center
08:24PM 39.3511 -89.6050 152° Southeast 485 558 31,000  Level Chicago Center
08:25PM 39.2311 -89.5267 153° Southeast 485 558 31,000  Level Chicago Center
08:26PM 39.1003 -89.4392 153° Southeast 486 559 31,000  Level Chicago Center
08:27PM 38.9358 -89.3308 153° Southeast 488 562 31,000  Level Kansas City Center
08:28PM 38.8150 -89.2517 153° Southeast 488 562 31,000  Level Kansas City Center
08:29PM 38.6958 -89.1731 153° Southeast 485 558 31,000  Level Kansas City Center
08:30PM 38.5508 -89.0778 153° Southeast 485 558 31,000  Level Kansas City Center
08:31PM 38.4317 -88.9978 152° Southeast 483 556 31,000  Level Kansas City Center
08:32PM 38.3136 -88.9194 152° Southeast 483 556 31,000  Level Kansas City Center
08:33PM 38.1933 -88.8411 153° Southeast 483 556 31,000  Level Kansas City Center
08:34PM 38.0725 -88.7628 153° Southeast 483 556 31,000  Level Kansas City Center
08:37PM 37.8236 -88.6011 153° Southeast 483 556 31,000  Level Kansas City Center
08:38PM 37.7022 -88.5231 153° Southeast 484 557 31,000  Level Kansas City Center
08:39PM 37.5861 -88.4514 154° Southeast 484 557 31,000  Level Memphis Center
08:40PM 37.4661 -88.3742 153° Southeast 484 557 31,000  Level Memphis Center
08:41PM 37.3228 -88.2836 153° Southeast 484 557 31,000  Level Memphis Center
08:42PM 37.2014 -88.2069 153° Southeast 484 557 31,000  Level Memphis Center
08:43PM 37.0797 -88.1294 153° Southeast 484 557 31,000  Level Memphis Center
08:44PM 36.9619 -88.0544 153° Southeast 484 557 31,000  Level Memphis Center
08:45PM 36.8403 -87.9786 153° Southeast 485 558 31,000 240 Level Memphis Center
08:46PM 36.7197 -87.9031 153° Southeast 484 557 31,500 600 Climbing Memphis Center
08:47PM 36.5992 -87.8272 153° Southeast 484 557 32,300 720 Climbing Memphis Center
08:48PM 36.4564 -87.7392 154° Southeast 484 557 33,000 300 Climbing Memphis Center
08:49PM 36.3381 -87.6656 153° Southeast 481 554 33,000  Level Memphis Center
08:50PM 36.2183 -87.5931 154° Southeast 480 552 33,000  Level Memphis Center
08:51PM 36.0978 -87.5181 153° Southeast 480 552 33,000  Level Memphis Center
08:52PM 35.9786 -87.4456 154° Southeast 479 551 33,000  Level Memphis Center
08:53PM 35.8594 -87.3756 155° Southeast 476 548 33,000  Level Memphis Center
08:54PM 35.7411 -87.3019 153° Southeast 475 547 33,000  Level Memphis Center
08:55PM 35.6225 -87.2303 154° Southeast 475 547 33,000  Level Memphis Center
08:56PM 35.4839 -87.1469 154° Southeast 475 547 33,000  Level Memphis Center
08:57PM 35.3769 -87.0819 154° Southeast 475 547 33,000  Level Memphis Center
08:58PM 35.2592 -87.0103 154° Southeast 475 547 33,000  Level Memphis Center
08:59PM 35.1433 -86.9419 154° Southeast 467 537 33,000  Level Memphis Center
09:00PM 35.0039 -86.8586 154° Southeast 465 535 33,000  Level Memphis Center
09:01PM 34.8908 -86.7911 154° Southeast 457 526 33,000  Level Memphis Center
09:02PM 34.7772 -86.7236 154° Southeast 455 524 33,000  Level Memphis Center
09:03PM 34.6636 -86.6578 155° Southeast 454 522 33,000  Level Memphis Center
09:04PM 34.5517 -86.5939 155° Southeast 448 516 33,000  Level Memphis Center
09:05PM 34.4397 -86.5281 154° Southeast 448 516 33,000  Level Memphis Center
09:06PM 34.3264 -86.4628 155° Southeast 448 516 33,000  Level Memphis Center
09:07PM 34.2131 -86.3975 155° Southeast 448 516 33,000  Level Memphis Center
09:09PM 34.0531 -86.3028 154° Southeast 447 514 33,000  Level Atlanta Center
09:10PM 33.9394 -86.2372 154° Southeast 447 514 33,000  Level Atlanta Center
09:11PM 33.8258 -86.1717 154° Southeast 442 509 33,000  Level Atlanta Center
09:12PM 33.7164 -86.1092 155° Southeast 442 509 33,000  Level Atlanta Center
09:13PM 33.6025 -86.0442 155° Southeast 442 509 33,000  Level Atlanta Center
09:14PM 33.5033 -85.9844 153° Southeast 436 502 33,000  Level Atlanta Center
09:15PM 33.3894 -85.9222 155° Southeast 441 507 33,000  Level Atlanta Center
09:16PM 33.2717 -85.8550 154° Southeast 451 519 33,000  Level Atlanta Center
09:17PM 33.1578 -85.7881 154° Southeast 457 526 33,000  Level Atlanta Center
09:18PM 33.0417 -85.7264 156° South 457 526 33,000  Level Atlanta Center
09:19PM 32.9133 -85.6522 154° Southeast 457 526 33,000  Level Atlanta Center
09:20PM 32.7994 -85.5883 155° Southeast 457 526 33,000  Level Atlanta Center
09:21PM 32.6875 -85.5247 154° Southeast 457 526 33,000  Level Atlanta Center
09:22PM 32.5692 -85.4611 156° South 457 526 33,000  Level Atlanta Center
09:23PM 32.4572 -85.4003 155° Southeast 452 520 33,000  Level Atlanta Center
09:24PM 32.3450 -85.3369 155° Southeast 452 520 33,000  Level Atlanta Center
09:26PM 32.0767 -85.1922 155° Southeast 444 511 33,000  Level Jacksonville Center
09:27PM 31.9650 -85.1333 156° South 439 505 33,000  Level Jacksonville Center
09:28PM 31.8575 -85.0744 155° Southeast 439 505 33,000  Level Jacksonville Center
09:29PM 31.7458 -85.0106 154° Southeast 439 505 33,000  Level Jacksonville Center
09:30PM 31.6300 -84.9494 156° South 444 511 33,000  Level Jacksonville Center
09:31PM 31.5161 -84.8886 156° South 444 511 33,000  Level Jacksonville Center
09:32PM 31.4044 -84.8278 155° Southeast 444 511 33,000  Level Jacksonville Center
09:33PM 31.2925 -84.7669 155° Southeast 444 511 33,000  Level Jacksonville Center
09:34PM 31.1806 -84.7042 154° Southeast 444 511 33,000  Level Jacksonville Center
09:35PM 31.0686 -84.6486 157° South 444 511 33,000  Level Jacksonville Center
09:36PM 30.9567 -84.5858 154° Southeast 444 511 33,000  Level Jacksonville Center
09:37PM 30.8447 -84.5283 156° South 439 505 33,000  Level Jacksonville Center
09:38PM 30.7286 -84.4658 155° Southeast 439 505 33,000  Level Jacksonville Center
09:39PM 30.6186 -84.4086 156° South 439 505 33,000  Level Jacksonville Center
09:40PM 30.5131 -84.3442 152° Southeast 439 505 33,000  Level Jacksonville Center
09:41PM 30.4053 -84.2750 151° Southeast 439 505 33,000  Level Jacksonville Center
09:42PM 30.2911 -84.1989 150° Southeast 439 505 33,000  Level Jacksonville Center
09:43PM 30.1833 -84.1300 151° Southeast 434 499 33,000  Level Jacksonville Center
09:44PM 30.0775 -84.0617 151° Southeast 434 499 33,000  Level Jacksonville Center
09:45PM 29.9717 -83.9931 151° Southeast 434 499 33,000  Level Jacksonville Center
09:46PM 29.8614 -83.9247 152° Southeast 439 505 33,000  Level Jacksonville Center
09:47PM 29.7533 -83.8542 150° Southeast 439 505 33,000 -60 Level Jacksonville Center
09:49PM 29.5372 -83.7136 150° Southeast 439 505 32,900 -660 Descending Jacksonville Center
09:50PM 29.4292 -83.6436 151° Southeast 444 511 31,100 -1,920 Descending Jacksonville Center
09:51PM 29.3253 -83.5761 150° Southeast 439 505 29,100 -2,040 Descending Jacksonville Center
09:52PM 29.2233 -83.5136 152° Southeast 429 494 27,100 -1,680 Descending Jacksonville Center
09:53PM 29.1214 -83.4464 150° Southeast 429 494 25,800 -1,380 Descending Jacksonville Center
09:54PM 29.0172 -83.3817 151° Southeast 424 488 24,400 -1,740 Descending Jacksonville Center
09:55PM 28.9172 -83.3172 151° Southeast 419 482 22,400 -1,860 Descending Jacksonville Center
09:56PM 28.8194 -83.2553 151° Southeast 406 467 20,700 -1,620 Descending Jacksonville Center
09:57PM 28.7214 -83.1933 151° Southeast 406 467 19,200 -1,680 Descending Jacksonville Center
09:58PM 28.6000 -83.1167 151° Southeast 382 440 16,800 -2,040 Descending Tampa TRACON
09:59PM 28.5167 -83.0667 152° Southeast 367 422 14,700 -2,100 Descending Tampa TRACON
10:00PM 28.4167 -83.0167 156° South 347 399 12,600 -1,860 Descending Tampa TRACON
10:01PM 28.3167 -83.0000 172° South 339 390 10,900 -1,320 Descending Tampa TRACON
10:02PM 28.2333 -82.9667 161° South 321 369 10,000 -480 Descending Tampa TRACON
10:03PM 28.1667 -82.9500 168° South 283 326 10,000 -900 Level Tampa TRACON
10:04PM 28.0833 -82.9167 161° South 288 331 8,400 -1,680 Descending Tampa TRACON
10:05PM 28.0167 -82.9000 168° South 288 331 6,700 -1,620 Descending Tampa TRACON
10:07PM 27.9167 -82.8667 164° South 260 299 4,800 -1,500 Descending Tampa TRACON
10:07PM 27.8667 -82.8500 164° South 241 277 3,700 -1,380 Descending Tampa TRACON
10:08PM 27.8167 -82.8333 164° South 217 250 2,500 -780 Descending Tampa TRACON
10:09PM 27.7500 -82.8000 156° South 192 221 2,000 -300 Descending Tampa TRACON
10:10PM 27.7167 -82.7500 127° Southeast 198 228 1,900  Descending Tampa TRACON
10:11PM 27.7167 -82.6833 90° East 197 227 2,000  Climbing Tampa TRACON
10:12PM 27.7667 -82.6667 16° North 202 232 2,000 -240 Level Tampa TRACON
10:13PM 27.8167 -82.6667 360° North 180 207 1,600 -600 Descending Tampa TRACON
10:14PM 27.8500 -82.6833 336° Northwest 138 159 900 -780 Descending Tampa TRACON
10:15PM 27.9000 -82.6833 360° North 137 158 200 -720 Descending Tampa TRACON